Time;durP1;ratioP1;P1;durP2;ratioP2;P2;SDS_P1;SDS_P2;PMS_P1;PMS_P2;Temp;Humidity;BMP_temperature;BMP_pressure;BME280_temperature;BME280_humidity;BME280_pressure;Samples;Min_cycle;Max_cycle;Signal;HPM_P1;HPM_P2
2024/01/08 00:01:37;;;;;;;12.27;4.15;;;-0.70;99.90;;;;;;5085972;28;20103;-63
2024/01/08 00:04:03;;;;;;;9.77;4.55;;;-1.40;99.90;;;;;;5107176;27;20047;-63
2024/01/08 00:06:29;;;;;;;9.02;4.13;;;-0.10;99.90;;;;;;5117138;27;20104;-64
2024/01/08 00:08:56;;;;;;;9.38;4.45;;;-1.40;99.90;;;;;;5086783;28;20051;-64
2024/01/08 00:11:22;;;;;;;10.10;4.38;;;-1.40;99.90;;;;;;5116443;27;20746;-65
2024/01/08 00:13:48;;;;;;;11.10;4.30;;;-1.40;99.90;;;;;;5095253;28;20046;-63
2024/01/08 00:16:13;;;;;;;9.05;4.03;;;-1.40;99.90;;;;;;5100825;28;20537;-63
2024/01/08 00:18:40;;;;;;;8.98;3.42;;;-1.40;99.90;;;;;;5100963;28;20039;-63
2024/01/08 00:21:05;;;;;;;10.38;4.20;;;-1.40;99.90;;;;;;5102869;28;20161;-64
2024/01/08 00:23:34;;;;;;;10.38;3.80;;;-1.40;99.90;;;;;;5099043;28;20555;-63
2024/01/08 00:25:59;;;;;;;12.52;4.30;;;-1.40;99.90;;;;;;5101371;28;20068;-63
2024/01/08 00:28:26;;;;;;;8.52;3.78;;;-1.40;99.90;;;;;;5101157;28;20575;-63
2024/01/08 00:30:52;;;;;;;9.18;4.20;;;-1.40;99.90;;;;;;5099475;28;20665;-63
2024/01/08 00:33:17;;;;;;;10.32;3.90;;;-1.40;99.90;;;;;;5102632;28;20035;-63
2024/01/08 00:35:43;;;;;;;11.57;3.67;;;-1.40;99.90;;;;;;5097878;28;20097;-63
2024/01/08 00:38:09;;;;;;;7.85;3.72;;;-1.40;99.90;;;;;;5083204;28;20036;-63
2024/01/08 00:40:35;;;;;;;10.82;3.80;;;-1.40;99.90;;;;;;5100337;28;20043;-63
2024/01/08 00:43:00;;;;;;;12.05;4.60;;;-1.40;99.90;;;;;;5082342;28;20044;-64
2024/01/08 00:45:27;;;;;;;14.57;4.32;;;-1.00;99.90;;;;;;5099767;28;20043;-63
2024/01/08 00:47:52;;;;;;;9.07;3.92;;;-1.40;99.90;;;;;;5102201;28;20516;-63
2024/01/08 00:50:18;;;;;;;11.48;4.10;;;-1.50;99.90;;;;;;5098732;28;20050;-63
2024/01/08 00:52:44;;;;;;;9.35;4.40;;;-1.50;99.90;;;;;;5083373;28;20097;-64
2024/01/08 00:55:11;;;;;;;10.07;4.65;;;-1.50;99.90;;;;;;5098335;28;20031;-63
2024/01/08 00:57:38;;;;;;;9.65;3.88;;;-1.60;99.90;;;;;;5099265;28;20053;-64
2024/01/08 01:00:10;;;;;;;9.75;4.30;;;-1.60;99.90;;;;;;5100142;28;20071;-63
2024/01/08 01:02:36;;;;;;;13.30;4.00;;;-1.60;99.90;;;;;;5100739;28;20257;-63
2024/01/08 01:05:02;;;;;;;11.48;3.97;;;-1.60;99.90;;;;;;5099628;28;20476;-64
2024/01/08 01:07:28;;;;;;;9.20;3.88;;;-1.60;99.90;;;;;;5102741;28;20407;-63
2024/01/08 01:09:55;;;;;;;8.90;3.70;;;-1.70;99.90;;;;;;5100236;28;20392;-63
2024/01/08 01:12:23;;;;;;;10.88;3.92;;;-1.70;99.90;;;;;;5083387;28;20036;-64
2024/01/08 01:14:49;;;;;;;12.80;4.22;;;-1.70;99.90;;;;;;5100077;28;20043;-63
2024/01/08 01:17:15;;;;;;;9.55;3.92;;;-1.70;99.90;;;;;;5099095;28;20391;-63
2024/01/08 01:19:40;;;;;;;9.20;4.15;;;-1.80;99.90;;;;;;5083785;28;20503;-64
2024/01/08 01:22:06;;;;;;;11.18;4.20;;;-1.80;99.90;;;;;;5101852;28;20048;-63
2024/01/08 01:24:32;;;;;;;9.13;3.88;;;-1.80;99.90;;;;;;5101606;28;20067;-63
2024/01/08 01:26:58;;;;;;;12.38;4.40;;;-1.10;99.90;;;;;;5104150;28;20046;-65
2024/01/08 01:29:23;;;;;;;11.73;4.03;;;-1.90;99.90;;;;;;5105521;28;20126;-63
2024/01/08 01:31:49;;;;;;;9.02;3.70;;;-1.90;99.90;;;;;;5105350;28;20039;-63
2024/01/08 01:34:17;;;;;;;9.20;3.90;;;-1.90;99.90;;;;;;5100937;27;20043;-63
2024/01/08 01:36:44;;;;;;;10.63;3.90;;;-1.90;99.90;;;;;;5102608;28;20051;-64
2024/01/08 01:39:10;;;;;;;12.32;4.28;;;-1.90;99.90;;;;;;5106780;28;20797;-64
2024/01/08 01:41:36;;;;;;;8.90;4.25;;;-2.00;99.90;;;;;;5103714;28;20063;-63
2024/01/08 01:44:02;;;;;;;10.73;4.43;;;-2.00;99.90;;;;;;5105110;28;20559;-63
2024/01/08 01:46:34;;;;;;;11.43;4.55;;;-2.00;99.90;;;;;;5104360;28;20096;-64
2024/01/08 01:49:00;;;;;;;11.98;5.10;;;-2.00;99.90;;;;;;5104475;28;20041;-63
2024/01/08 01:51:25;;;;;;;8.38;3.75;;;-2.00;99.90;;;;;;5102146;28;20043;-63
2024/01/08 01:53:52;;;;;;;11.30;4.43;;;-2.00;99.90;;;;;;5104988;28;20066;-64
2024/01/08 01:56:18;;;;;;;9.90;4.68;;;-2.00;99.90;;;;;;5106662;28;20081;-63
2024/01/08 01:58:46;;;;;;;9.20;4.22;;;-2.00;99.90;;;;;;5088525;28;20449;-63
2024/01/08 02:01:12;;;;;;;11.18;4.95;;;-1.90;99.90;;;;;;5104405;28;20086;-64
2024/01/08 02:03:39;;;;;;;8.77;4.50;;;-1.90;99.90;;;;;;5104431;28;20043;-63
2024/01/08 02:06:10;;;;;;;11.60;4.47;;;-1.90;99.90;;;;;;5104929;28;20607;-63
2024/01/08 02:08:36;;;;;;;10.43;4.85;;;-1.90;99.90;;;;;;5087989;28;20416;-63
2024/01/08 02:11:03;;;;;;;11.38;4.60;;;-1.90;99.90;;;;;;5104821;28;20111;-63
2024/01/08 02:13:29;;;;;;;10.20;4.63;;;-1.90;99.90;;;;;;5106275;28;20088;-63
2024/01/08 02:15:54;;;;;;;9.30;4.93;;;-1.40;99.90;;;;;;5104925;28;20085;-63
2024/01/08 02:18:21;;;;;;;12.93;5.18;;;-1.90;99.90;;;;;;5106321;28;20578;-62
2024/01/08 02:20:47;;;;;;;10.50;4.65;;;-1.90;99.90;;;;;;5106062;28;20054;-63
2024/01/08 02:23:13;;;;;;;11.43;4.95;;;-1.90;99.90;;;;;;5104213;28;20047;-63
2024/01/08 02:25:39;;;;;;;11.85;5.40;;;-1.90;99.90;;;;;;5104791;28;20555;-63
2024/01/08 02:28:05;;;;;;;9.98;4.95;;;-1.70;99.90;;;;;;5104377;28;20062;-63
2024/01/08 02:30:30;;;;;;;9.40;4.57;;;-1.80;99.90;;;;;;5105065;28;20737;-63
2024/01/08 02:32:56;;;;;;;10.93;5.05;;;-1.80;99.90;;;;;;5103608;28;20035;-63
2024/01/08 02:35:22;;;;;;;10.45;4.75;;;-1.80;99.90;;;;;;5103375;28;20413;-63
2024/01/08 02:37:47;;;;;;;9.88;4.72;;;-1.80;99.90;;;;;;5104945;28;20069;-63
2024/01/08 02:40:13;;;;;;;10.40;4.35;;;-1.80;99.90;;;;;;5103398;28;20121;-63
2024/01/08 02:42:40;;;;;;;11.65;5.00;;;-1.80;99.90;;;;;;5099944;28;20515;-63
2024/01/08 02:45:07;;;;;;;11.95;4.63;;;-1.80;99.90;;;;;;5103317;28;20051;-63
2024/01/08 02:47:37;;;;;;;13.15;5.60;;;-1.80;99.90;;;;;;5085795;28;20518;-63
2024/01/08 02:50:07;;;;;;;11.20;5.55;;;-1.80;99.90;;;;;;5104349;28;20142;-63
2024/01/08 02:52:33;;;;;;;10.90;5.47;;;-1.00;99.90;;;;;;5086576;28;20039;-63
2024/01/08 02:54:59;;;;;;;13.55;6.20;;;-1.70;99.90;;;;;;5102607;28;20168;-63
2024/01/08 02:57:26;;;;;;;11.18;5.50;;;-1.70;99.90;;;;;;5099680;28;20035;-64
2024/01/08 02:59:52;;;;;;;10.60;5.25;;;-1.70;99.90;;;;;;5086910;28;20132;-63
2024/01/08 03:02:18;;;;;;;11.98;5.90;;;-1.70;99.90;;;;;;5104046;28;20039;-63
2024/01/08 03:04:43;;;;;;;12.85;5.70;;;-1.70;99.90;;;;;;5104087;28;20039;-64
2024/01/08 03:07:10;;;;;;;10.13;4.68;;;-1.70;99.90;;;;;;5104631;28;20049;-64
2024/01/08 03:09:36;;;;;;;11.77;5.85;;;-1.60;99.90;;;;;;5104357;28;20696;-63
2024/01/08 03:12:02;;;;;;;8.48;4.72;;;-1.70;99.90;;;;;;5086031;28;20039;-63
2024/01/08 03:14:28;;;;;;;13.15;6.03;;;-1.60;99.90;;;;;;5104042;28;20043;-63
2024/01/08 03:16:53;;;;;;;13.55;5.38;;;-1.20;99.90;;;;;;5102042;28;20788;-63
2024/01/08 03:19:19;;;;;;;12.05;5.38;;;-1.10;99.90;;;;;;5102795;28;20039;-63
2024/01/08 03:21:45;;;;;;;11.20;5.28;;;-0.30;99.90;;;;;;5102581;28;20051;-63
2024/01/08 03:24:11;;;;;;;10.48;5.30;;;-1.60;99.90;;;;;;5085723;28;20055;-63
2024/01/08 03:26:36;;;;;;;12.23;5.55;;;-1.60;99.90;;;;;;5100356;28;20044;-63
2024/01/08 03:29:02;;;;;;;10.77;5.55;;;-0.70;99.90;;;;;;5099597;28;20770;-63
2024/01/08 03:31:28;;;;;;;11.50;5.25;;;-1.60;99.90;;;;;;5102069;28;20115;-63
2024/01/08 03:33:53;;;;;;;12.00;5.38;;;-1.40;99.90;;;;;;5102959;28;20047;-63
2024/01/08 03:36:19;;;;;;;13.65;5.50;;;-1.10;99.90;;;;;;5101135;28;20042;-63
2024/01/08 03:38:44;;;;;;;11.88;5.57;;;-1.50;99.90;;;;;;5082927;28;20058;-63
2024/01/08 03:41:10;;;;;;;13.25;5.57;;;-1.50;99.90;;;;;;5102203;28;20139;-63
2024/01/08 03:43:36;;;;;;;12.52;5.32;;;-1.50;99.90;;;;;;5102301;28;20281;-63
2024/01/08 03:46:02;;;;;;;12.23;5.38;;;-1.40;99.90;;;;;;5084371;28;20044;-63
2024/01/08 03:48:27;;;;;;;13.00;5.35;;;-1.50;99.90;;;;;;5103838;28;20039;-63
2024/01/08 03:50:54;;;;;;;11.82;5.10;;;-1.40;99.90;;;;;;5103065;28;20158;-63
2024/01/08 03:53:20;;;;;;;10.02;5.25;;;-1.40;99.90;;;;;;5085094;28;20101;-63
2024/01/08 03:55:45;;;;;;;11.70;4.90;;;-1.40;99.90;;;;;;5104156;28;20040;-63
2024/01/08 03:58:11;;;;;;;10.95;5.30;;;-1.30;99.90;;;;;;5099692;28;20048;-63
2024/01/08 04:00:37;;;;;;;10.10;4.97;;;-1.30;99.90;;;;;;5103606;28;20035;-65
2024/01/08 04:03:03;;;;;;;12.02;4.93;;;-1.30;99.90;;;;;;5103276;28;20462;-64
2024/01/08 04:05:28;;;;;;;11.43;4.43;;;-1.30;99.90;;;;;;5102149;28;20036;-63
2024/01/08 04:07:54;;;;;;;10.10;4.68;;;-1.30;99.90;;;;;;5103982;28;20523;-63
2024/01/08 04:10:23;;;;;;;9.02;4.28;;;-1.30;99.90;;;;;;5104344;28;20760;-64
2024/01/08 04:12:48;;;;;;;10.65;4.63;;;-1.30;99.90;;;;;;5101813;28;20038;-63
2024/01/08 04:15:14;;;;;;;12.27;5.10;;;-1.20;99.90;;;;;;5103937;28;20039;-64
2024/01/08 04:17:40;;;;;;;12.23;5.70;;;-1.20;99.90;;;;;;5101831;28;20051;-64
2024/01/08 04:20:06;;;;;;;9.45;4.43;;;-1.20;99.90;;;;;;5102413;28;20055;-63
2024/01/08 04:22:32;;;;;;;12.15;4.68;;;-1.30;99.90;;;;;;5099880;28;22431;-63
2024/01/08 04:24:58;;;;;;;12.23;4.75;;;-0.70;99.90;;;;;;5102156;28;20044;-63
2024/01/08 04:27:23;;;;;;;12.32;5.18;;;-1.20;99.90;;;;;;5135400;27;20047;-64
2024/01/08 04:29:49;;;;;;;9.13;4.05;;;-0.60;99.90;;;;;;5102310;28;20126;-67
2024/01/08 04:32:15;;;;;;;10.93;4.38;;;-1.20;99.90;;;;;;5104035;28;20042;-67
2024/01/08 04:34:40;;;;;;;10.23;4.60;;;-1.20;99.90;;;;;;5085696;28;20036;-66
2024/01/08 04:37:06;;;;;;;11.13;4.45;;;-1.20;99.90;;;;;;5085923;28;20058;-66
2024/01/08 04:39:32;;;;;;;10.85;4.18;;;-1.30;99.90;;;;;;5101672;28;20047;-67
2024/01/08 04:41:57;;;;;;;10.75;4.78;;;-1.30;99.90;;;;;;5103074;28;20112;-66
2024/01/08 04:44:23;;;;;;;10.70;5.07;;;-1.30;99.90;;;;;;5103074;28;20048;-66
2024/01/08 04:46:49;;;;;;;10.20;4.72;;;-1.10;99.90;;;;;;5103152;28;20036;-65
2024/01/08 04:49:15;;;;;;;7.72;3.28;;;-1.30;99.90;;;;;;5101456;28;20048;-64
2024/01/08 04:51:40;;;;;;;10.55;3.90;;;-1.20;99.90;;;;;;5102674;28;20088;-64
2024/01/08 04:54:07;;;;;;;11.02;4.18;;;-0.50;99.90;;;;;;5103880;28;20436;-63
2024/01/08 04:56:33;;;;;;;7.38;3.53;;;-1.40;99.90;;;;;;5102553;28;20043;-62
2024/01/08 04:58:59;;;;;;;7.53;3.47;;;-1.30;99.90;;;;;;5106649;27;20043;-63
2024/01/08 05:01:24;;;;;;;12.38;4.20;;;-1.30;99.90;;;;;;5107988;28;20043;-62
2024/01/08 05:03:51;;;;;;;9.57;3.95;;;0.10;99.90;;;;;;5105748;28;20044;-63
2024/01/08 05:06:17;;;;;;;9.02;3.40;;;-1.40;99.90;;;;;;5106396;28;20059;-63
2024/01/08 05:08:42;;;;;;;7.50;3.28;;;-1.40;99.90;;;;;;5107302;28;20071;-63
2024/01/08 05:11:08;;;;;;;8.57;3.60;;;-1.40;99.90;;;;;;5107864;28;20070;-63
2024/01/08 05:13:34;;;;;;;9.65;3.28;;;-1.40;99.90;;;;;;5104985;28;20117;-63
2024/01/08 05:16:03;;;;;;;9.27;3.30;;;-1.40;99.90;;;;;;5106021;28;20061;-64
2024/01/08 05:18:29;;;;;;;7.40;3.17;;;-1.50;99.90;;;;;;5088511;28;20139;-63
2024/01/08 05:20:55;;;;;;;8.32;3.55;;;-1.50;99.90;;;;;;5106647;28;20411;-63
2024/01/08 05:23:21;;;;;;;9.45;3.22;;;-1.50;99.90;;;;;;5106646;28;20032;-63
2024/01/08 05:25:46;;;;;;;7.43;2.80;;;-1.60;99.90;;;;;;5106399;28;20077;-63
2024/01/08 05:28:12;;;;;;;9.95;3.47;;;-1.60;99.90;;;;;;5105542;28;20138;-63
2024/01/08 05:30:38;;;;;;;6.43;3.00;;;-1.60;99.90;;;;;;5088285;28;20412;-63
2024/01/08 05:33:04;;;;;;;8.48;3.20;;;-1.60;99.90;;;;;;5107168;28;20039;-63
2024/01/08 05:35:29;;;;;;;5.70;2.60;;;-1.70;99.90;;;;;;5106283;28;20039;-62
2024/01/08 05:37:56;;;;;;;6.82;3.03;;;-1.70;99.90;;;;;;5107089;28;20910;-62
2024/01/08 05:40:22;;;;;;;8.40;3.15;;;-1.70;99.90;;;;;;5104622;28;20046;-62
2024/01/08 05:42:48;;;;;;;7.75;3.03;;;-1.80;99.90;;;;;;5107326;28;20044;-63
2024/01/08 05:45:14;;;;;;;8.30;3.20;;;-0.10;99.90;;;;;;5089099;28;20036;-62
2024/01/08 05:47:42;;;;;;;9.55;3.70;;;-1.20;99.90;;;;;;5105399;28;20040;-62
2024/01/08 05:50:08;;;;;;;6.65;2.97;;;-1.80;99.90;;;;;;5105011;28;20051;-62
2024/01/08 05:52:33;;;;;;;8.93;3.47;;;-1.80;99.90;;;;;;5105265;28;20039;-68
2024/01/08 05:54:59;;;;;;;7.78;3.08;;;-1.80;99.90;;;;;;5104753;28;20096;-63
2024/01/08 05:57:25;;;;;;;9.35;3.88;;;-1.80;99.90;;;;;;5106667;28;20043;-63
2024/01/08 05:59:51;;;;;;;8.85;3.78;;;-1.90;99.90;;;;;;5104331;28;20119;-63
2024/01/08 06:02:16;;;;;;;8.07;3.60;;;-1.90;99.90;;;;;;5105756;28;20040;-63
2024/01/08 06:04:42;;;;;;;10.25;3.55;;;-1.90;99.90;;;;;;5104973;28;20731;-64
2024/01/08 06:07:08;;;;;;;6.72;3.25;;;-1.90;99.90;;;;;;5105388;28;20121;-62
2024/01/08 06:09:35;;;;;;;10.35;3.75;;;-1.90;99.90;;;;;;5103317;28;20499;-63
2024/01/08 06:12:01;;;;;;;9.25;3.03;;;-1.90;99.90;;;;;;5084621;28;20048;-63
2024/01/08 06:14:26;;;;;;;8.77;3.67;;;-1.50;99.90;;;;;;5105541;27;20134;-63
2024/01/08 06:16:52;;;;;;;8.65;3.15;;;-1.90;99.90;;;;;;5106211;28;20043;-63
2024/01/08 06:19:18;;;;;;;8.25;4.18;;;-1.90;99.90;;;;;;5103507;28;20055;-63
2024/01/08 06:21:44;;;;;;;8.40;3.70;;;-2.00;99.90;;;;;;5101614;28;20058;-63
2024/01/08 06:24:10;;;;;;;10.13;4.05;;;-2.00;99.90;;;;;;5105283;28;20070;-63
2024/01/08 06:26:36;;;;;;;8.73;3.88;;;-2.00;99.90;;;;;;5087065;28;20047;-62
2024/01/08 06:29:02;;;;;;;14.18;3.60;;;-2.00;99.90;;;;;;5104802;28;20605;-63
2024/01/08 06:31:28;;;;;;;11.57;3.40;;;-2.00;99.90;;;;;;5102551;28;20044;-63
2024/01/08 06:33:54;;;;;;;8.30;3.60;;;-2.00;99.90;;;;;;5085725;28;20499;-63
2024/01/08 06:36:20;;;;;;;8.57;3.75;;;-2.10;99.90;;;;;;5104675;28;20050;-63
2024/01/08 06:38:46;;;;;;;13.30;4.93;;;-2.10;99.90;;;;;;5087935;28;20065;-63
2024/01/08 06:41:12;;;;;;;8.25;3.58;;;-2.00;99.90;;;;;;5103625;28;20773;-63
2024/01/08 06:43:38;;;;;;;10.85;3.80;;;-2.00;99.90;;;;;;5103059;28;20061;-63
2024/01/08 06:46:07;;;;;;;8.30;3.78;;;-1.70;99.90;;;;;;5104348;28;20039;-63
2024/01/08 06:48:33;;;;;;;13.25;3.40;;;-2.00;99.90;;;;;;5105324;28;20134;-63
2024/01/08 06:51:02;;;;;;;7.93;3.42;;;-1.80;99.90;;;;;;5104219;28;20130;-63
2024/01/08 06:53:28;;;;;;;11.55;4.13;;;-2.10;99.90;;;;;;5087221;28;20046;-63
2024/01/08 06:55:53;;;;;;;10.98;3.42;;;-2.10;99.90;;;;;;5100820;28;20039;-63
2024/01/08 06:58:19;;;;;;;8.60;4.10;;;-2.00;99.90;;;;;;5101625;28;20144;-63
2024/01/08 07:00:45;;;;;;;10.00;2.88;;;-2.00;99.90;;;;;;5094141;28;20035;-63
2024/01/08 07:03:11;;;;;;;9.40;3.60;;;-2.00;99.90;;;;;;5133773;27;20105;-62
2024/01/08 07:05:37;;;;;;;9.10;3.10;;;-2.00;99.90;;;;;;5130445;27;20435;-63
2024/01/08 07:08:02;;;;;;;11.25;3.20;;;-1.90;99.90;;;;;;5100879;28;20764;-63
2024/01/08 07:10:30;;;;;;;9.15;3.42;;;-1.90;99.90;;;;;;5102188;28;20035;-63
2024/01/08 07:12:56;;;;;;;11.65;2.95;;;-1.90;99.90;;;;;;5085106;28;20055;-72
2024/01/08 07:15:39;;;;;;;11.07;3.50;;;-1.90;99.90;;;;;;5096956;28;20032;-63
2024/01/08 07:18:05;;;;;;;8.98;3.05;;;-1.40;99.90;;;;;;5123565;27;20155;-63
2024/01/08 07:20:31;;;;;;;9.23;3.40;;;-1.80;99.90;;;;;;5096031;28;20130;-64
2024/01/08 07:22:56;;;;;;;11.95;3.47;;;-1.80;99.90;;;;;;5093052;28;20050;-64
2024/01/08 07:25:22;;;;;;;10.65;3.67;;;-1.80;99.90;;;;;;5096655;28;20122;-64
2024/01/08 07:27:48;;;;;;;12.73;3.63;;;-1.70;99.90;;;;;;5094913;27;20035;-64
2024/01/08 07:30:14;;;;;;;15.27;3.90;;;-1.70;99.90;;;;;;5098031;28;20043;-64
2024/01/08 07:32:40;;;;;;;10.35;4.60;;;-1.70;99.90;;;;;;5083925;28;20043;-64
2024/01/08 07:35:06;;;;;;;9.10;3.28;;;-1.70;99.90;;;;;;5092949;28;20108;-63
2024/01/08 07:37:31;;;;;;;10.07;3.40;;;-1.60;99.90;;;;;;5094817;28;20043;-63
2024/01/08 07:39:58;;;;;;;7.90;3.17;;;-1.60;99.90;;;;;;5082236;27;20055;-65
2024/01/08 07:42:23;;;;;;;8.68;3.28;;;-1.60;99.90;;;;;;5065109;28;20062;-64
2024/01/08 07:44:49;;;;;;;11.40;3.92;;;-1.10;99.90;;;;;;5088055;28;20047;-63
2024/01/08 07:47:15;;;;;;;10.38;3.75;;;-1.50;99.90;;;;;;5066886;28;20123;-64
2024/01/08 07:49:41;;;;;;;12.65;3.72;;;-1.50;99.90;;;;;;5089997;28;20052;-63
2024/01/08 07:52:06;;;;;;;10.75;4.25;;;-1.50;99.90;;;;;;5087834;28;20187;-63
2024/01/08 07:54:32;;;;;;;9.23;3.38;;;-1.50;99.90;;;;;;5091067;28;20046;-66
2024/01/08 07:56:58;;;;;;;11.88;3.85;;;-1.40;99.90;;;;;;5086463;28;20793;-66
2024/01/08 07:59:23;;;;;;;10.90;3.53;;;-1.40;99.90;;;;;;5092373;27;20457;-67
2024/01/08 08:01:49;;;;;;;10.93;3.22;;;-1.40;99.90;;;;;;5092230;28;20051;-66
2024/01/08 08:04:15;;;;;;;9.02;3.53;;;-1.40;99.90;;;;;;5089192;28;20043;-66
2024/01/08 08:06:41;;;;;;;11.27;3.53;;;-0.80;99.90;;;;;;5090142;28;20052;-66
2024/01/08 08:09:07;;;;;;;11.07;3.55;;;-1.30;99.90;;;;;;5092194;28;20047;-67
2024/01/08 08:11:33;;;;;;;13.32;4.82;;;-1.30;99.90;;;;;;5087617;28;20048;-66
2024/01/08 08:13:59;;;;;;;9.68;3.45;;;-1.30;99.90;;;;;;5092946;28;20043;-66
2024/01/08 08:16:24;;;;;;;9.43;3.65;;;-1.30;99.90;;;;;;5070350;28;20085;-66
2024/01/08 08:18:50;;;;;;;11.32;3.42;;;-1.20;99.90;;;;;;5089686;28;20063;-67
2024/01/08 08:21:17;;;;;;;11.75;3.70;;;-1.20;99.90;;;;;;5104433;28;20043;-66
2024/01/08 08:23:43;;;;;;;12.60;4.32;;;0.10;99.90;;;;;;5072707;28;20579;-66
2024/01/08 08:26:08;;;;;;;9.85;3.42;;;-0.40;99.90;;;;;;5081395;28;20159;-66
2024/01/08 08:28:34;;;;;;;9.93;3.20;;;-1.20;99.90;;;;;;5073171;28;20050;-66
2024/01/08 08:31:00;;;;;;;7.32;2.40;;;-1.20;99.90;;;;;;5076858;28;20148;-67
2024/01/08 08:33:26;;;;;;;10.07;2.90;;;-1.20;99.90;;;;;;5077822;28;20139;-66
2024/01/08 08:35:52;;;;;;;7.65;2.40;;;-1.20;99.90;;;;;;5077866;28;20589;-66
2024/01/08 08:38:18;;;;;;;7.47;2.70;;;-1.10;99.90;;;;;;5081537;28;20040;-66
2024/01/08 08:40:44;;;;;;;11.70;3.00;;;-1.00;99.90;;;;;;5078691;28;20043;-66
2024/01/08 08:43:09;;;;;;;9.98;3.15;;;-1.10;99.90;;;;;;5080029;28;20058;-66
2024/01/08 08:45:35;;;;;;;12.02;3.22;;;-1.10;99.90;;;;;;5080063;28;20043;-67
2024/01/08 08:48:01;;;;;;;7.65;2.88;;;-1.10;99.90;;;;;;5065254;28;20093;-66
2024/01/08 08:50:27;;;;;;;9.88;2.72;;;-1.10;99.90;;;;;;5113003;27;20416;-67
2024/01/08 08:52:53;;;;;;;9.18;3.17;;;-1.00;99.90;;;;;;5084671;28;20105;-67
2024/01/08 08:55:19;;;;;;;9.05;2.78;;;-1.00;99.90;;;;;;5085929;28;20052;-66
2024/01/08 08:57:44;;;;;;;9.77;2.63;;;-1.00;99.90;;;;;;5119889;27;20168;-67
2024/01/08 09:00:11;;;;;;;10.98;3.08;;;-0.30;99.90;;;;;;5068611;28;20055;-66
2024/01/08 09:02:36;;;;;;;10.80;3.00;;;-1.00;99.90;;;;;;5118141;27;20105;-66
2024/01/08 09:05:07;;;;;;;8.95;2.65;;;-1.00;99.90;;;;;;5085401;28;20451;-66
2024/01/08 09:07:33;;;;;;;7.30;2.95;;;-0.90;99.90;;;;;;5116354;27;20498;-66
2024/01/08 09:09:59;;;;;;;9.90;3.40;;;-0.90;99.90;;;;;;5068284;28;20044;-66
2024/01/08 09:12:26;;;;;;;10.10;3.10;;;-0.90;99.90;;;;;;5085626;28;20044;-66
2024/01/08 09:14:52;;;;;;;9.35;3.28;;;-0.60;99.90;;;;;;5117442;27;21338;-65
2024/01/08 09:17:18;;;;;;;9.52;3.17;;;-0.90;99.90;;;;;;5087624;28;20043;-66
2024/01/08 09:19:44;;;;;;;9.35;3.28;;;-0.20;99.90;;;;;;5087891;28;20055;-66
2024/01/08 09:22:10;;;;;;;7.65;2.85;;;-0.80;99.90;;;;;;5083520;28;20367;-66
2024/01/08 09:24:36;;;;;;;10.38;3.22;;;-0.80;99.90;;;;;;5108377;27;20588;-67
2024/01/08 09:27:02;;;;;;;8.38;2.88;;;-0.80;99.90;;;;;;5115289;27;20575;-66
2024/01/08 09:29:28;;;;;;;8.88;3.08;;;-0.80;99.90;;;;;;5088289;28;20061;-66
2024/01/08 09:31:54;;;;;;;12.90;3.95;;;-0.80;99.90;;;;;;5089765;28;20060;-67
2024/01/08 09:34:19;;;;;;;8.40;2.80;;;-0.70;99.90;;;;;;5088839;28;20468;-67
2024/01/08 09:36:45;;;;;;;7.57;2.80;;;-0.70;99.90;;;;;;5085649;28;20043;-63
2024/01/08 09:39:11;;;;;;;9.82;3.13;;;-0.70;99.90;;;;;;5102577;27;20150;-62
2024/01/08 09:41:38;;;;;;;8.73;2.83;;;-0.70;99.90;;;;;;5116165;27;20040;-64
2024/01/08 09:44:04;;;;;;;10.18;3.20;;;-0.20;99.90;;;;;;5071941;28;20069;-63
2024/01/08 09:46:39;;;;;;;11.43;3.13;;;-0.70;99.90;;;;;;5067632;28;20060;-63
2024/01/08 09:49:05;;;;;;;7.68;2.20;;;-0.70;99.90;;;;;;5086550;28;20154;-63
2024/01/08 09:51:31;;;;;;;7.35;2.58;;;-0.60;99.90;;;;;;5084073;28;20135;-64
2024/01/08 09:53:59;;;;;;;6.40;2.30;;;-0.40;99.90;;;;;;5082346;28;20128;-65
2024/01/08 09:56:27;;;;;;;7.68;2.60;;;-0.60;99.90;;;;;;5087025;28;20435;-63
2024/01/08 09:58:52;;;;;;;11.10;2.20;;;-0.60;99.90;;;;;;5116734;27;20071;-63
2024/01/08 10:01:18;;;;;;;7.40;2.30;;;-0.60;99.90;;;;;;5082892;28;22043;-65
2024/01/08 10:03:45;;;;;;;5.90;1.80;;;-0.60;99.90;;;;;;5114962;27;20064;-64
2024/01/08 10:06:11;;;;;;;6.57;2.65;;;0.60;99.90;;;;;;5072619;28;20048;-64
2024/01/08 10:08:37;;;;;;;4.65;2.17;;;-0.50;99.90;;;;;;5098832;27;20738;-64
2024/01/08 10:11:04;;;;;;;7.53;2.47;;;-0.50;99.90;;;;;;5116787;27;20499;-63
2024/01/08 10:13:30;;;;;;;6.60;2.10;;;-0.50;99.90;;;;;;5085353;28;20048;-64
2024/01/08 10:15:56;;;;;;;7.28;1.90;;;-0.50;99.90;;;;;;5086580;28;20120;-64
2024/01/08 10:18:24;;;;;;;5.88;2.15;;;-0.50;99.90;;;;;;5117146;27;20996;-63
2024/01/08 10:21:08;;;;;;;6.72;2.00;;;-0.50;99.90;;;;;;5086460;28;20171;-65
2024/01/08 10:23:34;;;;;;;9.50;2.42;;;-0.50;99.90;;;;;;5071045;28;20051;-63
2024/01/08 10:25:59;;;;;;;7.88;2.67;;;-0.50;99.90;;;;;;5074106;28;20051;-62
2024/01/08 10:28:25;;;;;;;6.53;2.10;;;-0.50;99.90;;;;;;5077710;28;20040;-63
2024/01/08 10:30:52;;;;;;;6.10;1.77;;;-0.50;99.90;;;;;;5096675;28;20126;-66
2024/01/08 10:33:18;;;;;;;5.97;2.30;;;-0.50;99.90;;;;;;5094020;28;20048;-63
2024/01/08 10:35:45;;;;;;;7.38;2.45;;;-0.50;99.90;;;;;;5083367;28;20471;-64
2024/01/08 10:38:12;;;;;;;7.25;2.55;;;-0.40;99.90;;;;;;5095342;28;20049;-63
2024/01/08 10:40:37;;;;;;;8.80;2.45;;;-0.50;99.90;;;;;;5126967;27;20510;-65
2024/01/08 10:43:03;;;;;;;5.85;2.05;;;-0.50;99.90;;;;;;5100180;28;20043;-64
2024/01/08 10:45:29;;;;;;;8.38;2.53;;;-0.50;99.90;;;;;;5102207;28;20039;-64
2024/01/08 10:47:59;;;;;;;7.75;2.65;;;-0.30;99.90;;;;;;5098057;28;20125;-64
2024/01/08 10:50:25;;;;;;;6.60;2.40;;;-0.50;99.90;;;;;;5130010;27;20043;-65
2024/01/08 10:52:56;;;;;;;8.50;3.03;;;-0.40;99.90;;;;;;5077744;28;20511;-64
2024/01/08 10:55:25;;;;;;;8.23;2.63;;;-0.40;99.90;;;;;;5070092;28;20396;-64
2024/01/08 10:57:52;;;;;;;9.13;2.78;;;-0.40;99.90;;;;;;5100513;28;20062;-63
2024/01/08 11:00:18;;;;;;;7.80;2.75;;;-0.40;99.90;;;;;;5100846;28;20071;-64
2024/01/08 11:02:45;;;;;;;16.20;3.03;;;-0.40;99.90;;;;;;5094662;28;20440;-64
2024/01/08 11:05:13;;;;;;;13.20;4.30;;;-0.40;99.90;;;;;;5129658;27;20043;-66
2024/01/08 11:07:41;;;;;;;9.60;3.42;;;-0.30;99.90;;;;;;5099962;28;20043;-65
2024/01/08 11:10:09;;;;;;;7.57;2.50;;;0.60;99.90;;;;;;5128155;27;20438;-65
2024/01/08 11:12:41;;;;;;;9.02;2.53;;;-0.30;99.90;;;;;;5096376;28;20046;-64
2024/01/08 11:15:09;;;;;;;6.75;2.08;;;-0.30;99.90;;;;;;5100697;28;20094;-64
2024/01/08 11:17:35;;;;;;;7.18;2.20;;;-0.30;99.90;;;;;;5132208;27;20467;-64
2024/01/08 11:20:05;;;;;;;6.07;2.00;;;-0.30;99.90;;;;;;5101845;28;20035;-64
2024/01/08 11:22:32;;;;;;;6.57;2.55;;;-0.30;99.90;;;;;;5092796;28;21450;-64
2024/01/08 11:24:59;;;;;;;6.65;2.20;;;-0.40;99.90;;;;;;5126380;27;20054;-65
2024/01/08 11:27:25;;;;;;;5.10;2.17;;;-0.30;99.90;;;;;;5074315;28;20052;-63
2024/01/08 11:29:58;;;;;;;8.68;2.63;;;-0.30;99.90;;;;;;5091603;28;20047;-63
2024/01/08 11:32:42;;;;;;;6.45;2.47;;;-0.30;99.90;;;;;;5110581;27;20050;-63
2024/01/08 11:35:13;;;;;;;5.20;2.15;;;-0.20;99.90;;;;;;5100113;28;20148;-63
2024/01/08 11:37:44;;;;;;;7.28;2.00;;;-0.20;99.90;;;;;;5095521;28;20263;-63
2024/01/08 11:40:16;;;;;;;5.18;2.25;;;-0.20;99.90;;;;;;5077578;28;20051;-63
2024/01/08 11:42:43;;;;;;;6.20;2.50;;;-0.20;99.90;;;;;;5122801;27;20050;-64
2024/01/08 11:45:09;;;;;;;7.30;2.45;;;0.70;99.90;;;;;;5082264;28;20066;-64
2024/01/08 11:47:37;;;;;;;6.18;2.05;;;-0.20;99.90;;;;;;5082653;28;20043;-64
2024/01/08 11:50:04;;;;;;;6.30;2.50;;;0.00;99.90;;;;;;5098301;28;20451;-64
2024/01/08 11:52:32;;;;;;;10.02;2.30;;;-0.10;99.90;;;;;;5105242;27;20039;-64
2024/01/08 11:54:59;;;;;;;8.85;2.72;;;-0.10;99.90;;;;;;5080404;28;20441;-64
2024/01/08 11:57:25;;;;;;;7.57;2.50;;;-0.10;99.90;;;;;;5097285;28;20048;-64
2024/01/08 11:59:52;;;;;;;7.00;2.60;;;-0.10;99.90;;;;;;5076823;28;20535;-64
2024/01/08 12:02:24;;;;;;;6.75;2.30;;;-0.10;99.90;;;;;;5092598;28;20055;-63
2024/01/08 12:04:58;;;;;;;6.25;2.10;;;-0.10;99.90;;;;;;5089336;28;20082;-66
2024/01/08 12:07:29;;;;;;;7.90;2.58;;;-0.20;99.90;;;;;;5070967;28;20134;-63
2024/01/08 12:09:57;;;;;;;6.72;2.40;;;-0.10;99.90;;;;;;5076815;28;20058;-64
2024/01/08 12:12:24;;;;;;;8.10;2.20;;;-0.10;99.90;;;;;;5092995;28;20036;-63
2024/01/08 12:14:53;;;;;;;8.55;2.28;;;0.20;99.90;;;;;;5077357;28;20754;-65
2024/01/08 12:17:19;;;;;;;5.60;2.38;;;-0.10;99.90;;;;;;5124326;27;20701;-63
2024/01/08 12:19:56;;;;;;;7.00;2.30;;;-0.10;99.90;;;;;;5092618;28;20669;-65
2024/01/08 12:22:23;;;;;;;5.43;2.10;;;-0.10;99.90;;;;;;5076845;28;20442;-64
2024/01/08 12:24:51;;;;;;;6.15;2.40;;;0.00;99.90;;;;;;5096552;28;20032;-64
2024/01/08 12:27:19;;;;;;;7.00;2.28;;;0.00;99.90;;;;;;5093586;28;20459;-64
2024/01/08 12:29:46;;;;;;;7.05;2.20;;;0.30;99.90;;;;;;5078256;28;20036;-63
2024/01/08 12:32:30;;;;;;;7.50;2.20;;;-0.10;99.90;;;;;;5076501;28;20097;-64
2024/01/08 12:34:57;;;;;;;7.35;2.40;;;0.00;99.90;;;;;;5092512;28;20644;-64
2024/01/08 12:37:23;;;;;;;7.88;2.72;;;0.00;99.90;;;;;;5091489;28;20043;-64
2024/01/08 12:39:49;;;;;;;5.95;2.90;;;0.00;99.90;;;;;;5094116;28;20512;-63